Terminal Aerodrome Forecast
Issued by NWS

Home | Current Version | Previous Version | Text Only | Print | Product List | Glossary On
Versions: 1 2 3 4 5 6 7 8 9 10 11 12
000
FTUS45 KRIW 220500
TAFWRL
TAF
KWRL 220520Z 2206/2306 34010KT P6SM SCT100
     FM221200 VRB05KT P6SM SCT110
     FM222200 33011KT P6SM VCTS SCT070CB BKN090
     FM230200 33012KT P6SM VCSH BKN050=

USA.gov is the U.S. government's official web portal to all federal, state and local government web resources and services.